Decoded Metar for KRCX (LADYSMITH/RUSK in WI, USA) (IATA:RCX) | Meteo·Mobile Aviation Weather
aviador You're here:

KRCX Decoded Metar

LADYSMITH/RUSK in WI, USA
Report Time2019-10-22 13:15:00
UTC Time2019-10-22 13:26:55
Flight Rules mvfr MVFR
Wind270° at 10 kt
W.Decomp.*RWY 32: 6.4 kt HW 7.7 kt LCW
RWY 19: 1.7 kt HW 9.8 kt RCW
Visibility9999 m
Phenomena:N/A
Clouds:Overcast 010 Hf
Ceiling1,000 ft
Temp06°C (ISA -7)
Dew Point06°C (100% RH)
AAT1.5°C
QNH990 hPa
Density Alt1,371 ft
Elevation1,237 ft
Report Wrong Elevation
Raw Report
KRCX 221315Z AUTO 27010KT 10SM OVC010 06/06 A2922 RMK AO2
T00580058=

Extra information for KRCX:More info

Metar Taf Metar & Taf Last 4 Metars F.Rules Stats Wind Profile Meteogram Temp Stats Airport Information Weather charts Add Link Nearby VenuesMetar ALERT Operation Metar Decoded Social comments

AIRNAV info for KRCX